sensor_id;sensor_type;location;lat;lon;timestamp;P1;durP1;ratioP1;P2;durP2;ratioP2
37787;SDS011;23627;53.302;-6.362;2022-11-20T00:01:16;5.03;;;1.20;;
37787;SDS011;23627;53.302;-6.362;2022-11-20T00:03:42;5.50;;;1.13;;
37787;SDS011;23627;53.302;-6.362;2022-11-20T00:06:09;7.43;;;1.25;;
37787;SDS011;23627;53.302;-6.362;2022-11-20T00:08:37;5.10;;;1.67;;
37787;SDS011;23627;53.302;-6.362;2022-11-20T00:11:13;7.78;;;1.40;;
37787;SDS011;23627;53.302;-6.362;2022-11-20T00:13:41;8.27;;;1.38;;
37787;SDS011;23627;53.302;-6.362;2022-11-20T00:16:09;6.68;;;1.70;;
37787;SDS011;23627;53.302;-6.362;2022-11-20T00:18:35;6.60;;;1.77;;
37787;SDS011;23627;53.302;-6.362;2022-11-20T00:21:06;8.55;;;1.60;;
37787;SDS011;23627;53.302;-6.362;2022-11-20T00:23:34;10.05;;;1.92;;
37787;SDS011;23627;53.302;-6.362;2022-11-20T00:26:07;9.43;;;1.85;;
37787;SDS011;23627;53.302;-6.362;2022-11-20T00:28:43;7.47;;;1.58;;
37787;SDS011;23627;53.302;-6.362;2022-11-20T00:31:14;7.72;;;1.77;;
37787;SDS011;23627;53.302;-6.362;2022-11-20T00:33:40;7.07;;;1.58;;
37787;SDS011;23627;53.302;-6.362;2022-11-20T00:36:12;9.63;;;1.92;;
37787;SDS011;23627;53.302;-6.362;2022-11-20T00:38:39;6.05;;;1.52;;
37787;SDS011;23627;53.302;-6.362;2022-11-20T00:41:06;9.73;;;1.60;;
37787;SDS011;23627;53.302;-6.362;2022-11-20T00:43:34;11.20;;;2.00;;
37787;SDS011;23627;53.302;-6.362;2022-11-20T00:46:01;8.98;;;1.98;;
37787;SDS011;23627;53.302;-6.362;2022-11-20T00:48:28;10.80;;;1.92;;
37787;SDS011;23627;53.302;-6.362;2022-11-20T00:50:54;8.00;;;1.60;;
37787;SDS011;23627;53.302;-6.362;2022-11-20T00:53:20;6.90;;;1.98;;
37787;SDS011;23627;53.302;-6.362;2022-11-20T00:56:00;9.90;;;1.95;;
37787;SDS011;23627;53.302;-6.362;2022-11-20T00:58:31;7.43;;;1.75;;
37787;SDS011;23627;53.302;-6.362;2022-11-20T01:01:03;8.38;;;1.85;;
37787;SDS011;23627;53.302;-6.362;2022-11-20T01:03:37;6.72;;;1.67;;
37787;SDS011;23627;53.302;-6.362;2022-11-20T01:06:12;7.95;;;1.65;;
37787;SDS011;23627;53.302;-6.362;2022-11-20T01:08:46;8.70;;;1.83;;
37787;SDS011;23627;53.302;-6.362;2022-11-20T01:11:14;9.90;;;2.00;;
37787;SDS011;23627;53.302;-6.362;2022-11-20T01:13:41;8.77;;;1.80;;
37787;SDS011;23627;53.302;-6.362;2022-11-20T01:16:14;8.90;;;1.95;;
37787;SDS011;23627;53.302;-6.362;2022-11-20T01:18:43;13.07;;;2.67;;
37787;SDS011;23627;53.302;-6.362;2022-11-20T01:21:11;10.35;;;2.08;;
37787;SDS011;23627;53.302;-6.362;2022-11-20T01:23:39;11.60;;;2.30;;
37787;SDS011;23627;53.302;-6.362;2022-11-20T01:26:07;11.88;;;2.15;;
37787;SDS011;23627;53.302;-6.362;2022-11-20T01:28:38;12.93;;;2.22;;
37787;SDS011;23627;53.302;-6.362;2022-11-20T01:31:26;14.57;;;2.33;;
37787;SDS011;23627;53.302;-6.362;2022-11-20T01:33:56;13.10;;;2.10;;
37787;SDS011;23627;53.302;-6.362;2022-11-20T01:36:24;8.32;;;1.90;;
37787;SDS011;23627;53.302;-6.362;2022-11-20T01:38:52;9.10;;;1.85;;
37787;SDS011;23627;53.302;-6.362;2022-11-20T01:41:19;8.13;;;1.90;;
37787;SDS011;23627;53.302;-6.362;2022-11-20T01:44:04;13.02;;;2.28;;
37787;SDS011;23627;53.302;-6.362;2022-11-20T01:46:31;11.75;;;1.80;;
37787;SDS011;23627;53.302;-6.362;2022-11-20T01:49:04;10.68;;;1.75;;
37787;SDS011;23627;53.302;-6.362;2022-11-20T01:51:46;9.80;;;2.15;;
37787;SDS011;23627;53.302;-6.362;2022-11-20T01:54:25;9.05;;;1.77;;
37787;SDS011;23627;53.302;-6.362;2022-11-20T01:56:59;11.63;;;2.17;;
37787;SDS011;23627;53.302;-6.362;2022-11-20T01:59:25;9.20;;;1.98;;
37787;SDS011;23627;53.302;-6.362;2022-11-20T02:01:53;10.00;;;1.92;;
37787;SDS011;23627;53.302;-6.362;2022-11-20T02:04:19;13.63;;;2.17;;
37787;SDS011;23627;53.302;-6.362;2022-11-20T02:06:48;10.70;;;2.35;;
37787;SDS011;23627;53.302;-6.362;2022-11-20T02:09:19;8.80;;;1.70;;
37787;SDS011;23627;53.302;-6.362;2022-11-20T02:11:45;11.45;;;1.88;;
37787;SDS011;23627;53.302;-6.362;2022-11-20T02:14:11;11.18;;;2.70;;
37787;SDS011;23627;53.302;-6.362;2022-11-20T02:16:37;12.80;;;2.33;;
37787;SDS011;23627;53.302;-6.362;2022-11-20T02:19:13;10.10;;;2.40;;
37787;SDS011;23627;53.302;-6.362;2022-11-20T02:24:23;13.85;;;2.22;;
37787;SDS011;23627;53.302;-6.362;2022-11-20T02:32:19;12.75;;;2.20;;
37787;SDS011;23627;53.302;-6.362;2022-11-20T02:34:56;11.10;;;2.13;;
37787;SDS011;23627;53.302;-6.362;2022-11-20T02:37:22;11.05;;;2.20;;
37787;SDS011;23627;53.302;-6.362;2022-11-20T02:39:51;14.13;;;2.58;;
37787;SDS011;23627;53.302;-6.362;2022-11-20T02:42:17;11.30;;;2.13;;
37787;SDS011;23627;53.302;-6.362;2022-11-20T02:44:43;10.75;;;2.00;;
37787;SDS011;23627;53.302;-6.362;2022-11-20T02:47:09;10.95;;;2.00;;
37787;SDS011;23627;53.302;-6.362;2022-11-20T02:49:35;11.43;;;2.15;;
37787;SDS011;23627;53.302;-6.362;2022-11-20T02:52:01;13.32;;;1.92;;
37787;SDS011;23627;53.302;-6.362;2022-11-20T02:54:26;16.20;;;2.45;;
37787;SDS011;23627;53.302;-6.362;2022-11-20T02:56:52;8.90;;;1.88;;
37787;SDS011;23627;53.302;-6.362;2022-11-20T02:59:18;10.90;;;1.75;;
37787;SDS011;23627;53.302;-6.362;2022-11-20T03:01:44;8.77;;;1.95;;
37787;SDS011;23627;53.302;-6.362;2022-11-20T03:04:10;9.00;;;1.88;;
37787;SDS011;23627;53.302;-6.362;2022-11-20T03:06:36;9.77;;;2.13;;
37787;SDS011;23627;53.302;-6.362;2022-11-20T03:09:01;7.53;;;1.40;;
37787;SDS011;23627;53.302;-6.362;2022-11-20T03:11:27;9.05;;;1.58;;
37787;SDS011;23627;53.302;-6.362;2022-11-20T03:13:53;9.15;;;1.70;;
37787;SDS011;23627;53.302;-6.362;2022-11-20T03:16:20;7.22;;;1.20;;
37787;SDS011;23627;53.302;-6.362;2022-11-20T03:18:47;9.32;;;1.60;;
37787;SDS011;23627;53.302;-6.362;2022-11-20T03:21:14;8.00;;;1.50;;
37787;SDS011;23627;53.302;-6.362;2022-11-20T03:23:40;6.07;;;1.63;;
37787;SDS011;23627;53.302;-6.362;2022-11-20T03:26:23;6.00;;;1.40;;
37787;SDS011;23627;53.302;-6.362;2022-11-20T03:28:54;7.43;;;1.15;;
37787;SDS011;23627;53.302;-6.362;2022-11-20T03:31:22;5.82;;;1.40;;
37787;SDS011;23627;53.302;-6.362;2022-11-20T03:33:50;6.20;;;1.20;;
37787;SDS011;23627;53.302;-6.362;2022-11-20T03:36:16;6.00;;;1.20;;
37787;SDS011;23627;53.302;-6.362;2022-11-20T03:38:43;5.97;;;1.30;;
37787;SDS011;23627;53.302;-6.362;2022-11-20T03:41:10;7.07;;;1.40;;
37787;SDS011;23627;53.302;-6.362;2022-11-20T03:43:38;8.95;;;1.30;;
37787;SDS011;23627;53.302;-6.362;2022-11-20T03:46:05;8.35;;;1.80;;
37787;SDS011;23627;53.302;-6.362;2022-11-20T03:48:31;7.93;;;1.52;;
37787;SDS011;23627;53.302;-6.362;2022-11-20T03:53:40;5.35;;;1.15;;
37787;SDS011;23627;53.302;-6.362;2022-11-20T03:56:07;7.28;;;1.35;;
37787;SDS011;23627;53.302;-6.362;2022-11-20T03:58:34;9.10;;;1.73;;
37787;SDS011;23627;53.302;-6.362;2022-11-20T04:01:08;5.68;;;1.00;;
37787;SDS011;23627;53.302;-6.362;2022-11-20T04:03:36;9.55;;;1.30;;
37787;SDS011;23627;53.302;-6.362;2022-11-20T04:06:04;7.70;;;1.45;;
37787;SDS011;23627;53.302;-6.362;2022-11-20T04:08:32;5.63;;;1.08;;
37787;SDS011;23627;53.302;-6.362;2022-11-20T04:13:57;13.82;;;2.33;;
37787;SDS011;23627;53.302;-6.362;2022-11-20T04:16:25;8.90;;;1.42;;
37787;SDS011;23627;53.302;-6.362;2022-11-20T04:18:54;6.70;;;1.40;;
37787;SDS011;23627;53.302;-6.362;2022-11-20T04:21:22;8.25;;;1.15;;
37787;SDS011;23627;53.302;-6.362;2022-11-20T04:23:48;8.80;;;2.03;;
37787;SDS011;23627;53.302;-6.362;2022-11-20T04:26:14;7.78;;;1.42;;
37787;SDS011;23627;53.302;-6.362;2022-11-20T04:28:40;9.07;;;1.60;;
37787;SDS011;23627;53.302;-6.362;2022-11-20T04:31:07;10.05;;;1.95;;
37787;SDS011;23627;53.302;-6.362;2022-11-20T04:33:34;10.75;;;1.40;;
37787;SDS011;23627;53.302;-6.362;2022-11-20T04:36:11;9.27;;;1.65;;
37787;SDS011;23627;53.302;-6.362;2022-11-20T04:38:41;8.93;;;1.55;;
37787;SDS011;23627;53.302;-6.362;2022-11-20T04:41:08;7.22;;;1.40;;
37787;SDS011;23627;53.302;-6.362;2022-11-20T04:43:46;8.57;;;1.10;;
37787;SDS011;23627;53.302;-6.362;2022-11-20T04:46:20;9.05;;;1.70;;
37787;SDS011;23627;53.302;-6.362;2022-11-20T04:48:46;10.68;;;1.73;;
37787;SDS011;23627;53.302;-6.362;2022-11-20T04:51:12;7.88;;;1.58;;
37787;SDS011;23627;53.302;-6.362;2022-11-20T04:53:38;8.98;;;2.13;;
37787;SDS011;23627;53.302;-6.362;2022-11-20T04:56:05;9.00;;;1.83;;
37787;SDS011;23627;53.302;-6.362;2022-11-20T04:58:33;8.52;;;1.60;;
37787;SDS011;23627;53.302;-6.362;2022-11-20T05:01:02;7.32;;;1.80;;
37787;SDS011;23627;53.302;-6.362;2022-11-20T05:03:32;7.72;;;1.55;;
37787;SDS011;23627;53.302;-6.362;2022-11-20T05:06:02;7.97;;;1.88;;
37787;SDS011;23627;53.302;-6.362;2022-11-20T05:08:29;9.55;;;1.63;;
37787;SDS011;23627;53.302;-6.362;2022-11-20T05:10:59;9.65;;;1.70;;
37787;SDS011;23627;53.302;-6.362;2022-11-20T05:13:26;8.70;;;1.63;;
37787;SDS011;23627;53.302;-6.362;2022-11-20T05:15:52;12.00;;;2.13;;
37787;SDS011;23627;53.302;-6.362;2022-11-20T05:18:18;10.75;;;2.08;;
37787;SDS011;23627;53.302;-6.362;2022-11-20T05:20:43;12.27;;;1.83;;
37787;SDS011;23627;53.302;-6.362;2022-11-20T05:23:09;6.40;;;1.10;;
37787;SDS011;23627;53.302;-6.362;2022-11-20T05:25:35;7.63;;;1.75;;
37787;SDS011;23627;53.302;-6.362;2022-11-20T05:28:00;8.43;;;1.83;;
37787;SDS011;23627;53.302;-6.362;2022-11-20T05:30:26;10.18;;;1.73;;
37787;SDS011;23627;53.302;-6.362;2022-11-20T05:32:52;8.93;;;1.73;;
37787;SDS011;23627;53.302;-6.362;2022-11-20T05:35:18;7.95;;;1.67;;
37787;SDS011;23627;53.302;-6.362;2022-11-20T05:37:43;9.07;;;1.52;;
37787;SDS011;23627;53.302;-6.362;2022-11-20T05:40:09;6.57;;;1.50;;
37787;SDS011;23627;53.302;-6.362;2022-11-20T05:42:36;9.75;;;1.55;;
37787;SDS011;23627;53.302;-6.362;2022-11-20T05:45:02;7.30;;;1.50;;
37787;SDS011;23627;53.302;-6.362;2022-11-20T05:47:31;9.73;;;1.35;;
37787;SDS011;23627;53.302;-6.362;2022-11-20T05:49:59;8.75;;;1.45;;
37787;SDS011;23627;53.302;-6.362;2022-11-20T05:52:27;9.57;;;1.40;;
37787;SDS011;23627;53.302;-6.362;2022-11-20T05:54:54;7.10;;;1.35;;
37787;SDS011;23627;53.302;-6.362;2022-11-20T05:57:20;9.65;;;1.90;;
37787;SDS011;23627;53.302;-6.362;2022-11-20T05:59:46;6.93;;;1.50;;
37787;SDS011;23627;53.302;-6.362;2022-11-20T06:02:11;7.13;;;1.45;;
37787;SDS011;23627;53.302;-6.362;2022-11-20T06:04:37;8.57;;;1.33;;
37787;SDS011;23627;53.302;-6.362;2022-11-20T06:07:04;9.65;;;1.40;;
37787;SDS011;23627;53.302;-6.362;2022-11-20T06:09:31;6.90;;;1.35;;
37787;SDS011;23627;53.302;-6.362;2022-11-20T06:11:57;7.00;;;1.20;;
37787;SDS011;23627;53.302;-6.362;2022-11-20T06:14:23;7.93;;;1.70;;
37787;SDS011;23627;53.302;-6.362;2022-11-20T06:16:48;4.22;;;1.10;;
37787;SDS011;23627;53.302;-6.362;2022-11-20T06:19:14;6.72;;;1.40;;
37787;SDS011;23627;53.302;-6.362;2022-11-20T06:21:40;7.60;;;1.17;;
37787;SDS011;23627;53.302;-6.362;2022-11-20T06:24:06;4.95;;;1.23;;
37787;SDS011;23627;53.302;-6.362;2022-11-20T06:26:33;7.93;;;1.05;;
37787;SDS011;23627;53.302;-6.362;2022-11-20T06:28:59;6.88;;;1.02;;
37787;SDS011;23627;53.302;-6.362;2022-11-20T06:31:25;6.00;;;1.10;;
37787;SDS011;23627;53.302;-6.362;2022-11-20T06:33:51;4.82;;;0.80;;
37787;SDS011;23627;53.302;-6.362;2022-11-20T06:36:19;4.53;;;0.82;;
37787;SDS011;23627;53.302;-6.362;2022-11-20T06:38:46;6.32;;;1.20;;
37787;SDS011;23627;53.302;-6.362;2022-11-20T06:41:14;5.80;;;1.20;;
37787;SDS011;23627;53.302;-6.362;2022-11-20T06:43:41;5.32;;;1.08;;
37787;SDS011;23627;53.302;-6.362;2022-11-20T06:46:08;6.32;;;1.10;;
37787;SDS011;23627;53.302;-6.362;2022-11-20T06:48:35;6.75;;;1.20;;
37787;SDS011;23627;53.302;-6.362;2022-11-20T06:51:02;5.93;;;1.10;;
37787;SDS011;23627;53.302;-6.362;2022-11-20T06:53:29;6.80;;;1.20;;
37787;SDS011;23627;53.302;-6.362;2022-11-20T06:55:59;6.43;;;1.13;;
37787;SDS011;23627;53.302;-6.362;2022-11-20T06:58:26;9.55;;;1.10;;
37787;SDS011;23627;53.302;-6.362;2022-11-20T07:00:53;4.55;;;1.08;;
37787;SDS011;23627;53.302;-6.362;2022-11-20T07:03:22;6.85;;;0.95;;
37787;SDS011;23627;53.302;-6.362;2022-11-20T07:05:48;6.57;;;1.00;;
37787;SDS011;23627;53.302;-6.362;2022-11-20T07:08:13;7.30;;;1.38;;
37787;SDS011;23627;53.302;-6.362;2022-11-20T07:10:39;10.25;;;1.10;;
37787;SDS011;23627;53.302;-6.362;2022-11-20T07:13:05;5.18;;;0.90;;
37787;SDS011;23627;53.302;-6.362;2022-11-20T07:15:31;6.63;;;0.82;;
37787;SDS011;23627;53.302;-6.362;2022-11-20T07:18:00;6.45;;;1.15;;
37787;SDS011;23627;53.302;-6.362;2022-11-20T07:20:26;5.30;;;1.30;;
37787;SDS011;23627;53.302;-6.362;2022-11-20T07:22:55;9.45;;;1.45;;
37787;SDS011;23627;53.302;-6.362;2022-11-20T07:25:22;8.05;;;1.35;;
37787;SDS011;23627;53.302;-6.362;2022-11-20T07:27:49;7.60;;;1.25;;
37787;SDS011;23627;53.302;-6.362;2022-11-20T07:30:15;11.75;;;1.30;;
37787;SDS011;23627;53.302;-6.362;2022-11-20T07:32:41;8.52;;;1.58;;
37787;SDS011;23627;53.302;-6.362;2022-11-20T07:35:07;7.20;;;1.42;;
37787;SDS011;23627;53.302;-6.362;2022-11-20T07:37:36;6.82;;;1.38;;
37787;SDS011;23627;53.302;-6.362;2022-11-20T07:40:02;10.38;;;1.58;;
37787;SDS011;23627;53.302;-6.362;2022-11-20T07:42:28;8.52;;;1.42;;
37787;SDS011;23627;53.302;-6.362;2022-11-20T07:44:54;7.15;;;1.23;;
37787;SDS011;23627;53.302;-6.362;2022-11-20T07:47:19;7.68;;;1.10;;
37787;SDS011;23627;53.302;-6.362;2022-11-20T07:49:45;6.60;;;1.30;;
37787;SDS011;23627;53.302;-6.362;2022-11-20T07:52:11;6.53;;;1.30;;
37787;SDS011;23627;53.302;-6.362;2022-11-20T07:54:37;6.15;;;1.17;;
37787;SDS011;23627;53.302;-6.362;2022-11-20T07:57:02;6.72;;;1.15;;
37787;SDS011;23627;53.302;-6.362;2022-11-20T07:59:28;8.43;;;1.25;;
37787;SDS011;23627;53.302;-6.362;2022-11-20T08:01:54;5.72;;;1.30;;
37787;SDS011;23627;53.302;-6.362;2022-11-20T08:04:20;7.20;;;1.48;;
37787;SDS011;23627;53.302;-6.362;2022-11-20T08:06:46;9.75;;;1.83;;
37787;SDS011;23627;53.302;-6.362;2022-11-20T08:09:12;10.00;;;1.35;;
37787;SDS011;23627;53.302;-6.362;2022-11-20T08:11:38;7.70;;;1.48;;
37787;SDS011;23627;53.302;-6.362;2022-11-20T08:14:22;8.13;;;1.38;;
37787;SDS011;23627;53.302;-6.362;2022-11-20T08:16:48;7.47;;;1.25;;
37787;SDS011;23627;53.302;-6.362;2022-11-20T08:19:15;8.70;;;1.50;;
37787;SDS011;23627;53.302;-6.362;2022-11-20T08:21:43;10.40;;;1.70;;
37787;SDS011;23627;53.302;-6.362;2022-11-20T08:24:09;5.43;;;1.48;;
37787;SDS011;23627;53.302;-6.362;2022-11-20T08:26:35;7.03;;;1.33;;
37787;SDS011;23627;53.302;-6.362;2022-11-20T08:29:03;7.38;;;1.65;;
37787;SDS011;23627;53.302;-6.362;2022-11-20T08:31:30;9.23;;;1.58;;
37787;SDS011;23627;53.302;-6.362;2022-11-20T08:33:56;7.13;;;1.27;;
37787;SDS011;23627;53.302;-6.362;2022-11-20T08:36:22;11.05;;;1.45;;
37787;SDS011;23627;53.302;-6.362;2022-11-20T08:38:52;8.65;;;1.40;;
37787;SDS011;23627;53.302;-6.362;2022-11-20T08:41:19;7.07;;;1.63;;
37787;SDS011;23627;53.302;-6.362;2022-11-20T08:43:49;7.30;;;1.30;;
37787;SDS011;23627;53.302;-6.362;2022-11-20T08:46:15;9.57;;;1.38;;
37787;SDS011;23627;53.302;-6.362;2022-11-20T08:48:42;8.70;;;1.70;;
37787;SDS011;23627;53.302;-6.362;2022-11-20T08:51:08;7.32;;;1.42;;
37787;SDS011;23627;53.302;-6.362;2022-11-20T08:53:34;10.10;;;1.50;;
37787;SDS011;23627;53.302;-6.362;2022-11-20T08:56:00;9.13;;;1.27;;
37787;SDS011;23627;53.302;-6.362;2022-11-20T08:58:26;8.48;;;1.33;;
37787;SDS011;23627;53.302;-6.362;2022-11-20T09:00:52;6.13;;;1.35;;
37787;SDS011;23627;53.302;-6.362;2022-11-20T09:03:18;6.30;;;1.30;;
37787;SDS011;23627;53.302;-6.362;2022-11-20T09:05:44;10.07;;;1.30;;
37787;SDS011;23627;53.302;-6.362;2022-11-20T09:08:10;6.50;;;1.40;;
37787;SDS011;23627;53.302;-6.362;2022-11-20T09:10:36;9.18;;;1.50;;
37787;SDS011;23627;53.302;-6.362;2022-11-20T09:13:04;9.30;;;1.10;;
37787;SDS011;23627;53.302;-6.362;2022-11-20T09:15:30;7.57;;;1.48;;
37787;SDS011;23627;53.302;-6.362;2022-11-20T09:17:57;9.93;;;1.17;;
37787;SDS011;23627;53.302;-6.362;2022-11-20T09:20:25;5.90;;;1.10;;
37787;SDS011;23627;53.302;-6.362;2022-11-20T09:22:52;4.93;;;1.00;;
37787;SDS011;23627;53.302;-6.362;2022-11-20T09:25:17;5.57;;;1.15;;
37787;SDS011;23627;53.302;-6.362;2022-11-20T09:27:43;5.70;;;1.20;;
37787;SDS011;23627;53.302;-6.362;2022-11-20T09:30:11;7.35;;;1.30;;
37787;SDS011;23627;53.302;-6.362;2022-11-20T09:32:40;7.72;;;1.20;;
37787;SDS011;23627;53.302;-6.362;2022-11-20T09:35:06;7.00;;;1.30;;
37787;SDS011;23627;53.302;-6.362;2022-11-20T09:37:33;4.25;;;1.00;;
37787;SDS011;23627;53.302;-6.362;2022-11-20T09:39:59;7.28;;;1.15;;
37787;SDS011;23627;53.302;-6.362;2022-11-20T09:42:41;6.70;;;1.10;;
37787;SDS011;23627;53.302;-6.362;2022-11-20T09:50:31;7.65;;;1.27;;
37787;SDS011;23627;53.302;-6.362;2022-11-20T09:53:13;6.40;;;0.90;;
37787;SDS011;23627;53.302;-6.362;2022-11-20T09:55:54;6.97;;;1.02;;
37787;SDS011;23627;53.302;-6.362;2022-11-20T09:58:35;5.43;;;1.00;;
37787;SDS011;23627;53.302;-6.362;2022-11-20T10:01:20;6.13;;;1.10;;
37787;SDS011;23627;53.302;-6.362;2022-11-20T10:03:50;4.05;;;0.93;;
37787;SDS011;23627;53.302;-6.362;2022-11-20T10:07:22;4.43;;;0.80;;
37787;SDS011;23627;53.302;-6.362;2022-11-20T10:09:55;5.28;;;0.85;;
37787;SDS011;23627;53.302;-6.362;2022-11-20T10:26:31;3.95;;;0.80;;
37787;SDS011;23627;53.302;-6.362;2022-11-20T10:29:07;3.45;;;0.70;;
37787;SDS011;23627;53.302;-6.362;2022-11-20T10:31:51;4.13;;;0.60;;
37787;SDS011;23627;53.302;-6.362;2022-11-20T10:39:44;3.78;;;0.40;;
37787;SDS011;23627;53.302;-6.362;2022-11-20T10:42:17;2.42;;;0.50;;
37787;SDS011;23627;53.302;-6.362;2022-11-20T10:44:52;2.83;;;0.55;;
37787;SDS011;23627;53.302;-6.362;2022-11-20T10:47:26;2.90;;;0.63;;
37787;SDS011;23627;53.302;-6.362;2022-11-20T10:49:55;2.60;;;0.60;;
37787;SDS011;23627;53.302;-6.362;2022-11-20T11:00:40;2.30;;;0.50;;
37787;SDS011;23627;53.302;-6.362;2022-11-20T11:03:25;1.77;;;0.52;;
37787;SDS011;23627;53.302;-6.362;2022-11-20T11:05:54;3.30;;;0.60;;
37787;SDS011;23627;53.302;-6.362;2022-11-20T11:08:32;1.92;;;0.57;;
37787;SDS011;23627;53.302;-6.362;2022-11-20T11:11:07;1.27;;;0.50;;
37787;SDS011;23627;53.302;-6.362;2022-11-20T11:13:42;1.83;;;0.50;;
37787;SDS011;23627;53.302;-6.362;2022-11-20T11:16:16;1.38;;;0.30;;
37787;SDS011;23627;53.302;-6.362;2022-11-20T11:18:49;1.40;;;0.40;;
37787;SDS011;23627;53.302;-6.362;2022-11-20T11:21:22;1.67;;;0.40;;
37787;SDS011;23627;53.302;-6.362;2022-11-20T11:23:57;1.73;;;0.28;;
37787;SDS011;23627;53.302;-6.362;2022-11-20T11:26:27;0.50;;;0.25;;
37787;SDS011;23627;53.302;-6.362;2022-11-20T11:29:00;1.25;;;0.30;;
37787;SDS011;23627;53.302;-6.362;2022-11-20T11:31:29;1.00;;;0.30;;
37787;SDS011;23627;53.302;-6.362;2022-11-20T11:34:05;0.65;;;0.10;;
37787;SDS011;23627;53.302;-6.362;2022-11-20T11:36:39;0.40;;;0.10;;
37787;SDS011;23627;53.302;-6.362;2022-11-20T11:39:09;1.67;;;0.20;;
37787;SDS011;23627;53.302;-6.362;2022-11-20T11:41:39;0.85;;;0.17;;
37787;SDS011;23627;53.302;-6.362;2022-11-20T11:44:15;1.05;;;0.20;;
37787;SDS011;23627;53.302;-6.362;2022-11-20T11:47:02;0.95;;;0.30;;
37787;SDS011;23627;53.302;-6.362;2022-11-20T11:49:31;1.38;;;0.20;;
37787;SDS011;23627;53.302;-6.362;2022-11-20T11:52:02;1.42;;;0.30;;
37787;SDS011;23627;53.302;-6.362;2022-11-20T12:02:34;1.33;;;0.30;;
37787;SDS011;23627;53.302;-6.362;2022-11-20T12:07:55;1.25;;;0.40;;
37787;SDS011;23627;53.302;-6.362;2022-11-20T12:13:02;0.88;;;0.30;;
37787;SDS011;23627;53.302;-6.362;2022-11-20T12:15:39;2.00;;;0.30;;
37787;SDS011;23627;53.302;-6.362;2022-11-20T12:18:19;2.10;;;0.43;;
37787;SDS011;23627;53.302;-6.362;2022-11-20T12:23:22;1.83;;;0.40;;
37787;SDS011;23627;53.302;-6.362;2022-11-20T12:25:53;0.80;;;0.30;;
37787;SDS011;23627;53.302;-6.362;2022-11-20T12:28:30;0.77;;;0.30;;
37787;SDS011;23627;53.302;-6.362;2022-11-20T12:36:51;0.50;;;0.20;;
37787;SDS011;23627;53.302;-6.362;2022-11-20T12:39:42;1.45;;;0.40;;
37787;SDS011;23627;53.302;-6.362;2022-11-20T13:01:52;1.17;;;0.50;;
37787;SDS011;23627;53.302;-6.362;2022-11-20T13:06:58;2.13;;;0.43;;
37787;SDS011;23627;53.302;-6.362;2022-11-20T13:09:28;3.22;;;0.50;;
37787;SDS011;23627;53.302;-6.362;2022-11-20T13:17:25;3.10;;;0.60;;
37787;SDS011;23627;53.302;-6.362;2022-11-20T13:19:58;1.35;;;0.47;;
37787;SDS011;23627;53.302;-6.362;2022-11-20T13:22:29;2.08;;;0.55;;
37787;SDS011;23627;53.302;-6.362;2022-11-20T13:27:56;2.42;;;0.60;;
37787;SDS011;23627;53.302;-6.362;2022-11-20T13:30:27;4.25;;;0.80;;
37787;SDS011;23627;53.302;-6.362;2022-11-20T13:33:08;3.00;;;0.60;;
37787;SDS011;23627;53.302;-6.362;2022-11-20T13:36:02;2.70;;;0.75;;
37787;SDS011;23627;53.302;-6.362;2022-11-20T13:39:04;3.22;;;0.70;;
37787;SDS011;23627;53.302;-6.362;2022-11-20T13:47:02;1.58;;;0.50;;
37787;SDS011;23627;53.302;-6.362;2022-11-20T13:49:38;3.85;;;0.73;;
37787;SDS011;23627;53.302;-6.362;2022-11-20T13:52:20;2.95;;;0.70;;
37787;SDS011;23627;53.302;-6.362;2022-11-20T14:00:23;2.67;;;0.82;;
37787;SDS011;23627;53.302;-6.362;2022-11-20T14:02:57;3.33;;;0.50;;
37787;SDS011;23627;53.302;-6.362;2022-11-20T14:05:31;2.35;;;0.70;;
37787;SDS011;23627;53.302;-6.362;2022-11-20T14:08:02;2.67;;;0.77;;
37787;SDS011;23627;53.302;-6.362;2022-11-20T14:10:31;3.90;;;0.80;;
37787;SDS011;23627;53.302;-6.362;2022-11-20T14:12:56;2.88;;;0.70;;
37787;SDS011;23627;53.302;-6.362;2022-11-20T14:15:29;4.85;;;1.00;;
37787;SDS011;23627;53.302;-6.362;2022-11-20T14:17:57;2.55;;;1.00;;
37787;SDS011;23627;53.302;-6.362;2022-11-20T14:20:24;3.63;;;0.60;;
37787;SDS011;23627;53.302;-6.362;2022-11-20T14:22:53;2.53;;;0.65;;
37787;SDS011;23627;53.302;-6.362;2022-11-20T14:25:23;2.90;;;0.60;;
37787;SDS011;23627;53.302;-6.362;2022-11-20T14:31:26;3.22;;;0.70;;
37787;SDS011;23627;53.302;-6.362;2022-11-20T14:33:53;3.97;;;0.65;;
37787;SDS011;23627;53.302;-6.362;2022-11-20T14:36:21;3.30;;;0.60;;
37787;SDS011;23627;53.302;-6.362;2022-11-20T14:38:52;5.85;;;0.75;;
37787;SDS011;23627;53.302;-6.362;2022-11-20T14:41:20;2.28;;;0.60;;
37787;SDS011;23627;53.302;-6.362;2022-11-20T14:43:49;2.45;;;0.70;;
37787;SDS011;23627;53.302;-6.362;2022-11-20T14:46:25;4.10;;;0.90;;
37787;SDS011;23627;53.302;-6.362;2022-11-20T14:48:56;2.92;;;1.05;;
37787;SDS011;23627;53.302;-6.362;2022-11-20T14:51:32;1.80;;;0.70;;
37787;SDS011;23627;53.302;-6.362;2022-11-20T14:56:37;3.42;;;0.75;;
37787;SDS011;23627;53.302;-6.362;2022-11-20T14:59:04;3.63;;;1.00;;
37787;SDS011;23627;53.302;-6.362;2022-11-20T15:01:30;3.08;;;0.65;;
37787;SDS011;23627;53.302;-6.362;2022-11-20T15:04:08;2.42;;;1.00;;
37787;SDS011;23627;53.302;-6.362;2022-11-20T15:06:35;1.90;;;0.60;;
37787;SDS011;23627;53.302;-6.362;2022-11-20T15:09:16;2.58;;;0.70;;
37787;SDS011;23627;53.302;-6.362;2022-11-20T15:16:00;1.92;;;0.70;;
37787;SDS011;23627;53.302;-6.362;2022-11-20T15:20:54;2.88;;;0.77;;
37787;SDS011;23627;53.302;-6.362;2022-11-20T15:23:21;2.88;;;1.00;;
37787;SDS011;23627;53.302;-6.362;2022-11-20T15:25:48;3.47;;;1.08;;
37787;SDS011;23627;53.302;-6.362;2022-11-20T15:30:49;6.00;;;1.38;;
37787;SDS011;23627;53.302;-6.362;2022-11-20T15:33:15;2.75;;;0.98;;
37787;SDS011;23627;53.302;-6.362;2022-11-20T15:35:42;4.32;;;1.20;;
37787;SDS011;23627;53.302;-6.362;2022-11-20T15:38:09;3.92;;;1.13;;
37787;SDS011;23627;53.302;-6.362;2022-11-20T15:40:35;5.65;;;1.45;;
37787;SDS011;23627;53.302;-6.362;2022-11-20T15:43:01;4.65;;;1.45;;
37787;SDS011;23627;53.302;-6.362;2022-11-20T15:45:32;4.35;;;1.00;;
37787;SDS011;23627;53.302;-6.362;2022-11-20T15:48:04;3.47;;;1.10;;
37787;SDS011;23627;53.302;-6.362;2022-11-20T15:50:38;3.88;;;1.10;;
37787;SDS011;23627;53.302;-6.362;2022-11-20T15:53:09;4.18;;;1.27;;
37787;SDS011;23627;53.302;-6.362;2022-11-20T15:55:35;3.00;;;1.08;;
37787;SDS011;23627;53.302;-6.362;2022-11-20T15:58:01;3.47;;;1.30;;
37787;SDS011;23627;53.302;-6.362;2022-11-20T16:00:27;2.30;;;1.02;;
37787;SDS011;23627;53.302;-6.362;2022-11-20T16:02:53;3.50;;;1.20;;
37787;SDS011;23627;53.302;-6.362;2022-11-20T16:05:18;3.40;;;1.30;;
37787;SDS011;23627;53.302;-6.362;2022-11-20T16:07:44;2.63;;;1.10;;
37787;SDS011;23627;53.302;-6.362;2022-11-20T16:10:10;2.10;;;1.25;;
37787;SDS011;23627;53.302;-6.362;2022-11-20T16:12:36;3.25;;;1.20;;
37787;SDS011;23627;53.302;-6.362;2022-11-20T16:15:20;4.80;;;1.27;;
37787;SDS011;23627;53.302;-6.362;2022-11-20T16:18:06;4.80;;;1.30;;
37787;SDS011;23627;53.302;-6.362;2022-11-20T16:20:35;3.30;;;1.23;;
37787;SDS011;23627;53.302;-6.362;2022-11-20T16:23:00;2.92;;;1.23;;
37787;SDS011;23627;53.302;-6.362;2022-11-20T16:25:26;4.90;;;1.80;;
37787;SDS011;23627;53.302;-6.362;2022-11-20T16:27:52;3.42;;;1.52;;
37787;SDS011;23627;53.302;-6.362;2022-11-20T16:30:18;7.25;;;2.10;;
37787;SDS011;23627;53.302;-6.362;2022-11-20T16:32:44;6.40;;;2.28;;
37787;SDS011;23627;53.302;-6.362;2022-11-20T16:35:10;6.90;;;2.45;;
37787;SDS011;23627;53.302;-6.362;2022-11-20T16:37:35;9.05;;;2.58;;
37787;SDS011;23627;53.302;-6.362;2022-11-20T16:40:03;7.30;;;2.50;;
37787;SDS011;23627;53.302;-6.362;2022-11-20T16:42:32;6.60;;;2.50;;
37787;SDS011;23627;53.302;-6.362;2022-11-20T16:45:02;4.15;;;1.80;;
37787;SDS011;23627;53.302;-6.362;2022-11-20T16:47:29;5.03;;;1.80;;
37787;SDS011;23627;53.302;-6.362;2022-11-20T16:49:58;4.43;;;1.77;;
37787;SDS011;23627;53.302;-6.362;2022-11-20T16:52:24;4.00;;;1.98;;